Terminal Aerodrome Forecast
Issued by NWS

Current Version | Previous Version | Text Only | Print | Product List | Glossary On
Versions: 1 2 3 4 5 6 7 8 9 10 11 12 13 14 15 16 17 18 19 20 21 22
000
FTUS41 KILN 252000 AAB
TAFLCK
TAF AMD
KLCK 252027Z 2520/2618 09005KT 3SM -DZ OVC005
      TEMPO 2521/2523 1SM -SNRA BR
     FM252300 02012KT 1SM -SN OVC005
      TEMPO 2523/2603 1/2SM SN
     FM260300 02013G21KT 2SM -SN OVC015
      TEMPO 2603/2607 1SM -SN OVC009
     FM261000 36014KT 5SM -SN OVC015
     FM261300 34011KT P6SM OVC012=

USA.gov is the U.S. government's official web portal to all federal, state and local government web resources and services.